sensor_id;sensor_type;location;lat;lon;timestamp;P1;durP1;ratioP1;P2;durP2;ratioP2
69246;SDS011;56358;56.328;43.992;2023-03-15T00:01:36;2.03;;;1.30;;
69246;SDS011;56358;56.328;43.992;2023-03-15T00:03:37;2.58;;;1.33;;
69246;SDS011;56358;56.328;43.992;2023-03-15T00:05:43;3.58;;;1.20;;
69246;SDS011;56358;56.328;43.992;2023-03-15T00:07:45;2.50;;;1.25;;
69246;SDS011;56358;56.328;43.992;2023-03-15T00:09:45;2.00;;;1.10;;
69246;SDS011;56358;56.328;43.992;2023-03-15T00:11:46;2.00;;;1.20;;
69246;SDS011;56358;56.328;43.992;2023-03-15T00:13:48;3.97;;;1.20;;
69246;SDS011;56358;56.328;43.992;2023-03-15T00:15:50;3.22;;;1.30;;
69246;SDS011;56358;56.328;43.992;2023-03-15T00:17:55;1.73;;;1.10;;
69246;SDS011;56358;56.328;43.992;2023-03-15T00:19:56;1.92;;;1.10;;
69246;SDS011;56358;56.328;43.992;2023-03-15T00:21:56;3.05;;;1.30;;
69246;SDS011;56358;56.328;43.992;2023-03-15T00:23:57;3.58;;;1.20;;
69246;SDS011;56358;56.328;43.992;2023-03-15T00:25:57;1.73;;;1.02;;
69246;SDS011;56358;56.328;43.992;2023-03-15T00:27:58;5.35;;;1.35;;
69246;SDS011;56358;56.328;43.992;2023-03-15T00:29:59;2.58;;;1.20;;
69246;SDS011;56358;56.328;43.992;2023-03-15T00:31:59;2.67;;;1.17;;
69246;SDS011;56358;56.328;43.992;2023-03-15T00:34:00;4.38;;;1.27;;
69246;SDS011;56358;56.328;43.992;2023-03-15T00:36:04;2.20;;;1.60;;
69246;SDS011;56358;56.328;43.992;2023-03-15T00:38:06;1.67;;;1.08;;
69246;SDS011;56358;56.328;43.992;2023-03-15T00:40:07;2.50;;;1.10;;
69246;SDS011;56358;56.328;43.992;2023-03-15T00:42:11;4.13;;;1.42;;
69246;SDS011;56358;56.328;43.992;2023-03-15T00:44:15;4.05;;;1.60;;
69246;SDS011;56358;56.328;43.992;2023-03-15T00:46:16;2.28;;;1.23;;
69246;SDS011;56358;56.328;43.992;2023-03-15T00:48:18;3.28;;;1.27;;
69246;SDS011;56358;56.328;43.992;2023-03-15T00:50:18;1.85;;;1.08;;
69246;SDS011;56358;56.328;43.992;2023-03-15T00:52:19;2.60;;;1.35;;
69246;SDS011;56358;56.328;43.992;2023-03-15T00:54:21;1.83;;;1.20;;
69246;SDS011;56358;56.328;43.992;2023-03-15T00:56:24;2.72;;;1.30;;
69246;SDS011;56358;56.328;43.992;2023-03-15T00:58:27;2.55;;;1.20;;
69246;SDS011;56358;56.328;43.992;2023-03-15T01:00:27;2.85;;;1.23;;
69246;SDS011;56358;56.328;43.992;2023-03-15T01:02:28;2.55;;;1.20;;
69246;SDS011;56358;56.328;43.992;2023-03-15T01:04:29;2.90;;;1.15;;
69246;SDS011;56358;56.328;43.992;2023-03-15T01:06:30;3.33;;;1.40;;
69246;SDS011;56358;56.328;43.992;2023-03-15T01:08:31;3.38;;;1.40;;
69246;SDS011;56358;56.328;43.992;2023-03-15T01:10:33;2.33;;;1.27;;
69246;SDS011;56358;56.328;43.992;2023-03-15T01:12:34;2.47;;;1.52;;
69246;SDS011;56358;56.328;43.992;2023-03-15T01:14:35;2.63;;;1.38;;
69246;SDS011;56358;56.328;43.992;2023-03-15T01:16:38;3.22;;;1.50;;
69246;SDS011;56358;56.328;43.992;2023-03-15T01:18:38;4.68;;;1.38;;
69246;SDS011;56358;56.328;43.992;2023-03-15T01:20:41;1.92;;;1.27;;
69246;SDS011;56358;56.328;43.992;2023-03-15T01:22:44;2.22;;;1.40;;
69246;SDS011;56358;56.328;43.992;2023-03-15T01:24:44;5.25;;;1.80;;
69246;SDS011;56358;56.328;43.992;2023-03-15T01:26:45;2.72;;;1.48;;
69246;SDS011;56358;56.328;43.992;2023-03-15T01:28:45;5.28;;;2.08;;
69246;SDS011;56358;56.328;43.992;2023-03-15T01:30:50;3.85;;;2.03;;
69246;SDS011;56358;56.328;43.992;2023-03-15T01:32:52;4.15;;;2.17;;
69246;SDS011;56358;56.328;43.992;2023-03-15T01:34:52;4.25;;;2.35;;
69246;SDS011;56358;56.328;43.992;2023-03-15T01:36:53;4.03;;;2.30;;
69246;SDS011;56358;56.328;43.992;2023-03-15T01:38:54;3.53;;;2.00;;
69246;SDS011;56358;56.328;43.992;2023-03-15T01:40:55;4.20;;;2.25;;
69246;SDS011;56358;56.328;43.992;2023-03-15T01:45:03;4.75;;;2.70;;
69246;SDS011;56358;56.328;43.992;2023-03-15T01:47:24;7.82;;;2.60;;
69246;SDS011;56358;56.328;43.992;2023-03-15T01:49:28;5.13;;;2.70;;
69246;SDS011;56358;56.328;43.992;2023-03-15T01:53:58;4.80;;;2.83;;
69246;SDS011;56358;56.328;43.992;2023-03-15T01:56:04;5.10;;;2.50;;
69246;SDS011;56358;56.328;43.992;2023-03-15T01:58:05;3.88;;;2.40;;
69246;SDS011;56358;56.328;43.992;2023-03-15T02:00:09;4.10;;;2.22;;
69246;SDS011;56358;56.328;43.992;2023-03-15T02:02:11;5.43;;;1.83;;
69246;SDS011;56358;56.328;43.992;2023-03-15T02:04:17;5.00;;;1.70;;
69246;SDS011;56358;56.328;43.992;2023-03-15T02:06:28;2.67;;;1.60;;
69246;SDS011;56358;56.328;43.992;2023-03-15T02:08:38;3.65;;;1.70;;
69246;SDS011;56358;56.328;43.992;2023-03-15T02:10:44;3.15;;;1.90;;
69246;SDS011;56358;56.328;43.992;2023-03-15T02:12:49;4.10;;;1.90;;
69246;SDS011;56358;56.328;43.992;2023-03-15T02:14:52;6.32;;;2.10;;
69246;SDS011;56358;56.328;43.992;2023-03-15T02:16:54;5.55;;;1.90;;
69246;SDS011;56358;56.328;43.992;2023-03-15T02:18:54;10.25;;;2.40;;
69246;SDS011;56358;56.328;43.992;2023-03-15T02:23:12;3.30;;;2.03;;
69246;SDS011;56358;56.328;43.992;2023-03-15T02:27:41;5.90;;;2.58;;
69246;SDS011;56358;56.328;43.992;2023-03-15T02:29:43;3.80;;;1.80;;
69246;SDS011;56358;56.328;43.992;2023-03-15T02:31:44;3.53;;;1.83;;
69246;SDS011;56358;56.328;43.992;2023-03-15T02:33:46;3.55;;;1.70;;
69246;SDS011;56358;56.328;43.992;2023-03-15T02:35:49;4.90;;;2.00;;
69246;SDS011;56358;56.328;43.992;2023-03-15T02:37:50;6.50;;;2.20;;
69246;SDS011;56358;56.328;43.992;2023-03-15T02:39:51;4.63;;;2.15;;
69246;SDS011;56358;56.328;43.992;2023-03-15T02:41:55;3.58;;;1.98;;
69246;SDS011;56358;56.328;43.992;2023-03-15T02:46:33;3.95;;;2.05;;
69246;SDS011;56358;56.328;43.992;2023-03-15T02:48:34;9.80;;;2.42;;
69246;SDS011;56358;56.328;43.992;2023-03-15T02:50:37;4.40;;;1.65;;
69246;SDS011;56358;56.328;43.992;2023-03-15T02:52:38;4.15;;;1.90;;
69246;SDS011;56358;56.328;43.992;2023-03-15T02:54:39;3.95;;;1.80;;
69246;SDS011;56358;56.328;43.992;2023-03-15T02:56:42;4.80;;;2.10;;
69246;SDS011;56358;56.328;43.992;2023-03-15T02:58:43;3.80;;;1.67;;
69246;SDS011;56358;56.328;43.992;2023-03-15T03:00:46;2.50;;;1.48;;
69246;SDS011;56358;56.328;43.992;2023-03-15T03:02:47;4.90;;;1.90;;
69246;SDS011;56358;56.328;43.992;2023-03-15T03:04:48;3.63;;;1.85;;
69246;SDS011;56358;56.328;43.992;2023-03-15T03:06:49;3.97;;;1.67;;
69246;SDS011;56358;56.328;43.992;2023-03-15T03:08:49;3.42;;;1.50;;
69246;SDS011;56358;56.328;43.992;2023-03-15T03:10:50;6.70;;;2.03;;
69246;SDS011;56358;56.328;43.992;2023-03-15T03:12:51;4.80;;;2.15;;
69246;SDS011;56358;56.328;43.992;2023-03-15T03:14:54;4.10;;;1.90;;
69246;SDS011;56358;56.328;43.992;2023-03-15T03:16:55;2.88;;;1.67;;
69246;SDS011;56358;56.328;43.992;2023-03-15T03:18:56;4.57;;;1.70;;
69246;SDS011;56358;56.328;43.992;2023-03-15T03:20:57;4.18;;;1.50;;
69246;SDS011;56358;56.328;43.992;2023-03-15T03:22:58;2.83;;;1.50;;
69246;SDS011;56358;56.328;43.992;2023-03-15T03:24:59;3.58;;;1.60;;
69246;SDS011;56358;56.328;43.992;2023-03-15T03:27:00;3.25;;;1.60;;
69246;SDS011;56358;56.328;43.992;2023-03-15T03:29:00;3.15;;;1.65;;
69246;SDS011;56358;56.328;43.992;2023-03-15T03:31:01;3.20;;;1.52;;
69246;SDS011;56358;56.328;43.992;2023-03-15T03:33:02;3.45;;;1.48;;
69246;SDS011;56358;56.328;43.992;2023-03-15T03:35:02;4.30;;;1.50;;
69246;SDS011;56358;56.328;43.992;2023-03-15T03:37:03;4.38;;;1.50;;
69246;SDS011;56358;56.328;43.992;2023-03-15T03:39:04;2.78;;;1.50;;
69246;SDS011;56358;56.328;43.992;2023-03-15T03:41:05;3.80;;;1.92;;
69246;SDS011;56358;56.328;43.992;2023-03-15T03:43:06;5.85;;;2.35;;
69246;SDS011;56358;56.328;43.992;2023-03-15T03:45:07;4.40;;;1.90;;
69246;SDS011;56358;56.328;43.992;2023-03-15T03:47:08;3.15;;;1.80;;
69246;SDS011;56358;56.328;43.992;2023-03-15T03:49:08;3.35;;;1.42;;
69246;SDS011;56358;56.328;43.992;2023-03-15T03:51:09;2.95;;;1.58;;
69246;SDS011;56358;56.328;43.992;2023-03-15T03:53:10;2.70;;;1.60;;
69246;SDS011;56358;56.328;43.992;2023-03-15T03:55:11;4.45;;;1.70;;
69246;SDS011;56358;56.328;43.992;2023-03-15T03:57:12;3.58;;;1.73;;
69246;SDS011;56358;56.328;43.992;2023-03-15T03:59:13;4.55;;;1.60;;
69246;SDS011;56358;56.328;43.992;2023-03-15T04:01:14;2.95;;;1.55;;
69246;SDS011;56358;56.328;43.992;2023-03-15T04:03:14;4.97;;;1.92;;
69246;SDS011;56358;56.328;43.992;2023-03-15T04:05:15;5.15;;;2.13;;
69246;SDS011;56358;56.328;43.992;2023-03-15T04:07:16;2.13;;;1.30;;
69246;SDS011;56358;56.328;43.992;2023-03-15T04:09:16;6.28;;;1.73;;
69246;SDS011;56358;56.328;43.992;2023-03-15T04:11:17;2.58;;;1.60;;
69246;SDS011;56358;56.328;43.992;2023-03-15T04:13:18;2.30;;;1.38;;
69246;SDS011;56358;56.328;43.992;2023-03-15T04:15:20;3.72;;;1.60;;
69246;SDS011;56358;56.328;43.992;2023-03-15T04:17:24;3.03;;;1.67;;
69246;SDS011;56358;56.328;43.992;2023-03-15T04:19:24;3.88;;;1.95;;
69246;SDS011;56358;56.328;43.992;2023-03-15T04:21:26;3.40;;;1.70;;
69246;SDS011;56358;56.328;43.992;2023-03-15T04:23:30;6.43;;;1.73;;
69246;SDS011;56358;56.328;43.992;2023-03-15T04:25:33;4.65;;;2.15;;
69246;SDS011;56358;56.328;43.992;2023-03-15T04:27:34;5.85;;;1.80;;
69246;SDS011;56358;56.328;43.992;2023-03-15T04:29:34;3.80;;;1.65;;
69246;SDS011;56358;56.328;43.992;2023-03-15T04:31:35;2.47;;;1.52;;
69246;SDS011;56358;56.328;43.992;2023-03-15T04:33:36;3.17;;;1.50;;
69246;SDS011;56358;56.328;43.992;2023-03-15T04:35:37;4.03;;;1.90;;
69246;SDS011;56358;56.328;43.992;2023-03-15T04:37:38;4.78;;;1.70;;
69246;SDS011;56358;56.328;43.992;2023-03-15T04:39:39;1.80;;;1.30;;
69246;SDS011;56358;56.328;43.992;2023-03-15T04:41:41;3.65;;;1.90;;
69246;SDS011;56358;56.328;43.992;2023-03-15T04:43:42;4.22;;;2.20;;
69246;SDS011;56358;56.328;43.992;2023-03-15T04:45:43;3.97;;;1.98;;
69246;SDS011;56358;56.328;43.992;2023-03-15T04:47:44;3.60;;;1.70;;
69246;SDS011;56358;56.328;43.992;2023-03-15T04:49:45;4.25;;;2.25;;
69246;SDS011;56358;56.328;43.992;2023-03-15T04:51:45;4.45;;;2.28;;
69246;SDS011;56358;56.328;43.992;2023-03-15T04:53:46;4.28;;;2.35;;
69246;SDS011;56358;56.328;43.992;2023-03-15T04:55:47;3.13;;;1.70;;
69246;SDS011;56358;56.328;43.992;2023-03-15T04:57:47;3.92;;;1.58;;
69246;SDS011;56358;56.328;43.992;2023-03-15T04:59:48;3.05;;;1.50;;
69246;SDS011;56358;56.328;43.992;2023-03-15T05:01:48;4.18;;;2.28;;
69246;SDS011;56358;56.328;43.992;2023-03-15T05:03:49;3.55;;;2.10;;
69246;SDS011;56358;56.328;43.992;2023-03-15T05:05:50;7.68;;;1.85;;
69246;SDS011;56358;56.328;43.992;2023-03-15T05:07:50;5.35;;;2.03;;
69246;SDS011;56358;56.328;43.992;2023-03-15T05:09:51;3.22;;;1.70;;
69246;SDS011;56358;56.328;43.992;2023-03-15T05:11:52;2.50;;;1.52;;
69246;SDS011;56358;56.328;43.992;2023-03-15T05:13:52;4.03;;;2.00;;
69246;SDS011;56358;56.328;43.992;2023-03-15T05:15:53;5.72;;;1.80;;
69246;SDS011;56358;56.328;43.992;2023-03-15T05:17:54;5.28;;;1.85;;
69246;SDS011;56358;56.328;43.992;2023-03-15T05:19:55;3.22;;;1.88;;
69246;SDS011;56358;56.328;43.992;2023-03-15T05:21:55;3.70;;;2.08;;
69246;SDS011;56358;56.328;43.992;2023-03-15T05:23:56;4.50;;;2.05;;
69246;SDS011;56358;56.328;43.992;2023-03-15T05:25:57;6.00;;;2.20;;
69246;SDS011;56358;56.328;43.992;2023-03-15T05:27:57;4.40;;;2.08;;
69246;SDS011;56358;56.328;43.992;2023-03-15T05:29:58;4.85;;;1.75;;
69246;SDS011;56358;56.328;43.992;2023-03-15T05:32:04;2.92;;;1.80;;
69246;SDS011;56358;56.328;43.992;2023-03-15T05:34:05;2.95;;;1.77;;
69246;SDS011;56358;56.328;43.992;2023-03-15T05:36:06;3.72;;;1.77;;
69246;SDS011;56358;56.328;43.992;2023-03-15T05:38:07;4.22;;;2.00;;
69246;SDS011;56358;56.328;43.992;2023-03-15T05:40:08;3.63;;;1.88;;
69246;SDS011;56358;56.328;43.992;2023-03-15T05:42:09;5.90;;;2.08;;
69246;SDS011;56358;56.328;43.992;2023-03-15T05:44:10;4.65;;;2.00;;
69246;SDS011;56358;56.328;43.992;2023-03-15T05:46:10;6.28;;;2.35;;
69246;SDS011;56358;56.328;43.992;2023-03-15T05:48:11;4.45;;;2.10;;
69246;SDS011;56358;56.328;43.992;2023-03-15T05:50:12;4.53;;;1.90;;
69246;SDS011;56358;56.328;43.992;2023-03-15T05:52:12;4.50;;;2.45;;
69246;SDS011;56358;56.328;43.992;2023-03-15T05:54:13;5.25;;;1.92;;
69246;SDS011;56358;56.328;43.992;2023-03-15T05:56:14;3.88;;;2.00;;
69246;SDS011;56358;56.328;43.992;2023-03-15T05:58:15;8.77;;;2.70;;
69246;SDS011;56358;56.328;43.992;2023-03-15T06:00:15;4.32;;;2.28;;
69246;SDS011;56358;56.328;43.992;2023-03-15T06:02:17;3.47;;;2.05;;
69246;SDS011;56358;56.328;43.992;2023-03-15T06:04:17;4.07;;;2.10;;
69246;SDS011;56358;56.328;43.992;2023-03-15T06:06:18;5.25;;;2.20;;
69246;SDS011;56358;56.328;43.992;2023-03-15T06:08:19;6.53;;;2.67;;
69246;SDS011;56358;56.328;43.992;2023-03-15T06:10:19;11.20;;;2.40;;
69246;SDS011;56358;56.328;43.992;2023-03-15T06:12:21;6.50;;;2.35;;
69246;SDS011;56358;56.328;43.992;2023-03-15T06:14:21;7.22;;;2.50;;
69246;SDS011;56358;56.328;43.992;2023-03-15T06:16:22;6.55;;;2.45;;
69246;SDS011;56358;56.328;43.992;2023-03-15T06:18:23;6.30;;;2.45;;
69246;SDS011;56358;56.328;43.992;2023-03-15T06:20:23;5.15;;;2.15;;
69246;SDS011;56358;56.328;43.992;2023-03-15T06:22:24;7.35;;;2.80;;
69246;SDS011;56358;56.328;43.992;2023-03-15T06:24:24;6.40;;;2.83;;
69246;SDS011;56358;56.328;43.992;2023-03-15T06:26:25;6.07;;;2.83;;
69246;SDS011;56358;56.328;43.992;2023-03-15T06:28:26;4.60;;;2.42;;
69246;SDS011;56358;56.328;43.992;2023-03-15T06:30:26;5.13;;;2.45;;
69246;SDS011;56358;56.328;43.992;2023-03-15T06:32:27;6.63;;;2.30;;
69246;SDS011;56358;56.328;43.992;2023-03-15T06:34:28;6.40;;;2.50;;
69246;SDS011;56358;56.328;43.992;2023-03-15T06:36:29;14.95;;;7.05;;
69246;SDS011;56358;56.328;43.992;2023-03-15T06:38:31;9.13;;;4.15;;
69246;SDS011;56358;56.328;43.992;2023-03-15T06:40:32;5.95;;;2.90;;
69246;SDS011;56358;56.328;43.992;2023-03-15T06:42:33;4.25;;;2.25;;
69246;SDS011;56358;56.328;43.992;2023-03-15T06:44:34;6.68;;;2.63;;
69246;SDS011;56358;56.328;43.992;2023-03-15T06:46:34;4.38;;;2.67;;
69246;SDS011;56358;56.328;43.992;2023-03-15T06:48:35;4.00;;;2.53;;
69246;SDS011;56358;56.328;43.992;2023-03-15T06:50:36;7.20;;;3.30;;
69246;SDS011;56358;56.328;43.992;2023-03-15T06:52:37;4.82;;;2.60;;
69246;SDS011;56358;56.328;43.992;2023-03-15T06:54:38;4.95;;;2.42;;
69246;SDS011;56358;56.328;43.992;2023-03-15T06:56:39;5.00;;;2.38;;
69246;SDS011;56358;56.328;43.992;2023-03-15T06:58:39;5.93;;;2.70;;
69246;SDS011;56358;56.328;43.992;2023-03-15T07:00:40;6.15;;;2.70;;
69246;SDS011;56358;56.328;43.992;2023-03-15T07:02:41;9.32;;;2.85;;
69246;SDS011;56358;56.328;43.992;2023-03-15T07:04:42;6.45;;;2.78;;
69246;SDS011;56358;56.328;43.992;2023-03-15T07:06:43;14.55;;;5.20;;
69246;SDS011;56358;56.328;43.992;2023-03-15T07:08:44;6.00;;;2.60;;
69246;SDS011;56358;56.328;43.992;2023-03-15T07:10:45;5.32;;;2.83;;
69246;SDS011;56358;56.328;43.992;2023-03-15T07:12:47;5.63;;;2.75;;
69246;SDS011;56358;56.328;43.992;2023-03-15T07:14:48;5.93;;;2.78;;
69246;SDS011;56358;56.328;43.992;2023-03-15T07:16:48;10.35;;;2.90;;
69246;SDS011;56358;56.328;43.992;2023-03-15T07:18:49;4.32;;;2.67;;
69246;SDS011;56358;56.328;43.992;2023-03-15T07:20:57;8.65;;;4.25;;
69246;SDS011;56358;56.328;43.992;2023-03-15T07:22:58;5.43;;;2.80;;
69246;SDS011;56358;56.328;43.992;2023-03-15T07:24:59;7.00;;;2.85;;
69246;SDS011;56358;56.328;43.992;2023-03-15T07:27:00;6.57;;;2.60;;
69246;SDS011;56358;56.328;43.992;2023-03-15T07:29:00;4.90;;;2.60;;
69246;SDS011;56358;56.328;43.992;2023-03-15T07:31:03;5.78;;;2.80;;
69246;SDS011;56358;56.328;43.992;2023-03-15T07:33:05;7.65;;;3.05;;
69246;SDS011;56358;56.328;43.992;2023-03-15T07:35:05;7.13;;;2.70;;
69246;SDS011;56358;56.328;43.992;2023-03-15T07:37:07;5.18;;;2.55;;
69246;SDS011;56358;56.328;43.992;2023-03-15T07:39:07;7.32;;;3.17;;
69246;SDS011;56358;56.328;43.992;2023-03-15T07:41:08;6.10;;;3.28;;
69246;SDS011;56358;56.328;43.992;2023-03-15T07:43:09;12.98;;;5.55;;
69246;SDS011;56358;56.328;43.992;2023-03-15T07:45:10;7.53;;;3.20;;
69246;SDS011;56358;56.328;43.992;2023-03-15T07:47:11;8.02;;;3.15;;
69246;SDS011;56358;56.328;43.992;2023-03-15T07:49:11;5.53;;;2.90;;
69246;SDS011;56358;56.328;43.992;2023-03-15T07:51:12;9.63;;;3.22;;
69246;SDS011;56358;56.328;43.992;2023-03-15T07:53:13;8.57;;;3.50;;
69246;SDS011;56358;56.328;43.992;2023-03-15T07:55:14;6.50;;;2.90;;
69246;SDS011;56358;56.328;43.992;2023-03-15T07:57:14;6.10;;;2.83;;
69246;SDS011;56358;56.328;43.992;2023-03-15T07:59:15;5.72;;;3.20;;
69246;SDS011;56358;56.328;43.992;2023-03-15T08:01:15;5.03;;;3.10;;
69246;SDS011;56358;56.328;43.992;2023-03-15T08:03:16;6.80;;;3.33;;
69246;SDS011;56358;56.328;43.992;2023-03-15T08:05:17;7.00;;;3.08;;
69246;SDS011;56358;56.328;43.992;2023-03-15T08:07:20;7.53;;;4.07;;
69246;SDS011;56358;56.328;43.992;2023-03-15T08:09:21;7.32;;;3.40;;
69246;SDS011;56358;56.328;43.992;2023-03-15T08:11:22;5.90;;;3.33;;
69246;SDS011;56358;56.328;43.992;2023-03-15T08:13:23;7.57;;;3.65;;
69246;SDS011;56358;56.328;43.992;2023-03-15T08:15:24;7.15;;;3.78;;
69246;SDS011;56358;56.328;43.992;2023-03-15T08:17:24;5.95;;;3.03;;
69246;SDS011;56358;56.328;43.992;2023-03-15T08:19:25;7.10;;;3.40;;
69246;SDS011;56358;56.328;43.992;2023-03-15T08:21:25;6.45;;;3.00;;
69246;SDS011;56358;56.328;43.992;2023-03-15T08:23:26;6.18;;;3.47;;
69246;SDS011;56358;56.328;43.992;2023-03-15T08:25:27;9.27;;;4.03;;
69246;SDS011;56358;56.328;43.992;2023-03-15T08:27:28;14.43;;;7.35;;
69246;SDS011;56358;56.328;43.992;2023-03-15T08:29:28;11.23;;;3.92;;
69246;SDS011;56358;56.328;43.992;2023-03-15T08:31:29;6.68;;;3.40;;
69246;SDS011;56358;56.328;43.992;2023-03-15T08:33:30;7.90;;;3.65;;
69246;SDS011;56358;56.328;43.992;2023-03-15T08:35:32;8.20;;;4.00;;
69246;SDS011;56358;56.328;43.992;2023-03-15T08:37:33;8.63;;;3.63;;
69246;SDS011;56358;56.328;43.992;2023-03-15T08:39:34;7.18;;;3.35;;
69246;SDS011;56358;56.328;43.992;2023-03-15T08:41:35;7.35;;;3.80;;
69246;SDS011;56358;56.328;43.992;2023-03-15T08:43:36;6.20;;;3.35;;
69246;SDS011;56358;56.328;43.992;2023-03-15T08:45:36;7.00;;;3.55;;
69246;SDS011;56358;56.328;43.992;2023-03-15T08:47:37;6.03;;;3.35;;
69246;SDS011;56358;56.328;43.992;2023-03-15T08:49:37;6.70;;;3.00;;
69246;SDS011;56358;56.328;43.992;2023-03-15T08:51:38;8.13;;;3.38;;
69246;SDS011;56358;56.328;43.992;2023-03-15T08:53:39;6.20;;;3.38;;
69246;SDS011;56358;56.328;43.992;2023-03-15T08:55:40;5.25;;;3.25;;
69246;SDS011;56358;56.328;43.992;2023-03-15T08:57:40;4.72;;;2.78;;
69246;SDS011;56358;56.328;43.992;2023-03-15T08:59:42;4.75;;;2.88;;
69246;SDS011;56358;56.328;43.992;2023-03-15T09:01:42;6.85;;;3.03;;
69246;SDS011;56358;56.328;43.992;2023-03-15T09:03:44;6.45;;;3.08;;
69246;SDS011;56358;56.328;43.992;2023-03-15T09:05:44;4.95;;;2.63;;
69246;SDS011;56358;56.328;43.992;2023-03-15T09:07:45;7.18;;;2.63;;
69246;SDS011;56358;56.328;43.992;2023-03-15T09:09:47;5.95;;;2.70;;
69246;SDS011;56358;56.328;43.992;2023-03-15T09:11:48;5.38;;;2.58;;
69246;SDS011;56358;56.328;43.992;2023-03-15T09:13:49;4.68;;;2.70;;
69246;SDS011;56358;56.328;43.992;2023-03-15T09:15:50;6.93;;;3.00;;
69246;SDS011;56358;56.328;43.992;2023-03-15T09:17:54;6.60;;;2.70;;
69246;SDS011;56358;56.328;43.992;2023-03-15T09:19:54;5.43;;;2.80;;
69246;SDS011;56358;56.328;43.992;2023-03-15T09:21:55;7.30;;;3.72;;
69246;SDS011;56358;56.328;43.992;2023-03-15T09:23:55;8.50;;;4.60;;
69246;SDS011;56358;56.328;43.992;2023-03-15T09:25:56;4.38;;;2.58;;
69246;SDS011;56358;56.328;43.992;2023-03-15T09:27:57;5.85;;;2.72;;
69246;SDS011;56358;56.328;43.992;2023-03-15T09:29:58;6.10;;;2.63;;
69246;SDS011;56358;56.328;43.992;2023-03-15T09:31:58;3.75;;;2.20;;
69246;SDS011;56358;56.328;43.992;2023-03-15T09:34:01;4.22;;;2.20;;
69246;SDS011;56358;56.328;43.992;2023-03-15T09:36:02;7.32;;;3.00;;
69246;SDS011;56358;56.328;43.992;2023-03-15T09:38:03;6.15;;;2.88;;
69246;SDS011;56358;56.328;43.992;2023-03-15T09:40:03;4.20;;;2.33;;
69246;SDS011;56358;56.328;43.992;2023-03-15T09:42:10;4.18;;;2.40;;
69246;SDS011;56358;56.328;43.992;2023-03-15T09:49:03;6.53;;;2.00;;
69246;SDS011;56358;56.328;43.992;2023-03-15T09:55:40;3.20;;;1.90;;
69246;SDS011;56358;56.328;43.992;2023-03-15T09:57:50;5.05;;;1.67;;
69246;SDS011;56358;56.328;43.992;2023-03-15T09:59:54;6.07;;;2.30;;
69246;SDS011;56358;56.328;43.992;2023-03-15T10:06:36;3.13;;;1.77;;
69246;SDS011;56358;56.328;43.992;2023-03-15T10:08:45;3.30;;;1.60;;
69246;SDS011;56358;56.328;43.992;2023-03-15T10:10:59;4.25;;;1.45;;
69246;SDS011;56358;56.328;43.992;2023-03-15T10:15:35;4.22;;;1.80;;
69246;SDS011;56358;56.328;43.992;2023-03-15T10:18:59;8.30;;;3.33;;
69246;SDS011;56358;56.328;43.992;2023-03-15T10:21:10;4.60;;;2.17;;
69246;SDS011;56358;56.328;43.992;2023-03-15T10:23:22;4.88;;;1.42;;
69246;SDS011;56358;56.328;43.992;2023-03-15T10:25:45;5.28;;;1.50;;
69246;SDS011;56358;56.328;43.992;2023-03-15T10:27:56;3.20;;;1.40;;
69246;SDS011;56358;56.328;43.992;2023-03-15T10:32:23;3.13;;;1.35;;
69246;SDS011;56358;56.328;43.992;2023-03-15T10:34:26;1.98;;;1.17;;
69246;SDS011;56358;56.328;43.992;2023-03-15T10:36:28;2.13;;;1.33;;
69246;SDS011;56358;56.328;43.992;2023-03-15T10:38:29;2.60;;;1.30;;
69246;SDS011;56358;56.328;43.992;2023-03-15T10:43:11;1.80;;;1.30;;
69246;SDS011;56358;56.328;43.992;2023-03-15T10:47:23;3.92;;;1.80;;
69246;SDS011;56358;56.328;43.992;2023-03-15T10:49:32;3.50;;;1.50;;
69246;SDS011;56358;56.328;43.992;2023-03-15T10:51:44;2.97;;;1.25;;
69246;SDS011;56358;56.328;43.992;2023-03-15T10:54:10;5.80;;;1.85;;
69246;SDS011;56358;56.328;43.992;2023-03-15T10:56:20;2.65;;;1.35;;
69246;SDS011;56358;56.328;43.992;2023-03-15T10:58:28;2.78;;;1.50;;
69246;SDS011;56358;56.328;43.992;2023-03-15T11:00:39;3.92;;;1.40;;
69246;SDS011;56358;56.328;43.992;2023-03-15T11:02:50;2.92;;;1.10;;
69246;SDS011;56358;56.328;43.992;2023-03-15T11:07:14;3.55;;;1.30;;
69246;SDS011;56358;56.328;43.992;2023-03-15T11:09:17;5.93;;;1.60;;
69246;SDS011;56358;56.328;43.992;2023-03-15T11:11:21;3.28;;;1.30;;
69246;SDS011;56358;56.328;43.992;2023-03-15T11:13:24;2.92;;;1.50;;
69246;SDS011;56358;56.328;43.992;2023-03-15T11:15:26;2.80;;;1.30;;
69246;SDS011;56358;56.328;43.992;2023-03-15T11:17:28;2.22;;;1.30;;
69246;SDS011;56358;56.328;43.992;2023-03-15T11:19:33;3.55;;;1.27;;
69246;SDS011;56358;56.328;43.992;2023-03-15T11:21:38;4.28;;;1.58;;
69246;SDS011;56358;56.328;43.992;2023-03-15T11:23:41;4.47;;;2.30;;
69246;SDS011;56358;56.328;43.992;2023-03-15T11:25:44;2.97;;;1.60;;
69246;SDS011;56358;56.328;43.992;2023-03-15T11:27:45;2.03;;;1.30;;
69246;SDS011;56358;56.328;43.992;2023-03-15T11:29:54;4.82;;;1.55;;
69246;SDS011;56358;56.328;43.992;2023-03-15T11:31:59;4.03;;;1.40;;
69246;SDS011;56358;56.328;43.992;2023-03-15T11:36:02;4.00;;;1.67;;
69246;SDS011;56358;56.328;43.992;2023-03-15T11:38:12;3.55;;;1.30;;
69246;SDS011;56358;56.328;43.992;2023-03-15T11:40:20;4.80;;;1.50;;
69246;SDS011;56358;56.328;43.992;2023-03-15T11:42:37;4.63;;;1.60;;
69246;SDS011;56358;56.328;43.992;2023-03-15T11:44:47;2.80;;;1.60;;
69246;SDS011;56358;56.328;43.992;2023-03-15T11:47:00;3.75;;;1.85;;
69246;SDS011;56358;56.328;43.992;2023-03-15T11:49:52;3.30;;;2.03;;
69246;SDS011;56358;56.328;43.992;2023-03-15T11:51:44;3.50;;;1.90;;
69246;SDS011;56358;56.328;43.992;2023-03-15T11:53:46;3.45;;;1.73;;
69246;SDS011;56358;56.328;43.992;2023-03-15T11:58:34;3.83;;;1.80;;
69246;SDS011;56358;56.328;43.992;2023-03-15T12:00:48;4.20;;;1.90;;
69246;SDS011;56358;56.328;43.992;2023-03-15T12:02:51;3.03;;;2.03;;
69246;SDS011;56358;56.328;43.992;2023-03-15T12:05:03;3.10;;;1.70;;
69246;SDS011;56358;56.328;43.992;2023-03-15T12:07:08;2.78;;;1.83;;
69246;SDS011;56358;56.328;43.992;2023-03-15T12:11:37;3.90;;;2.28;;
69246;SDS011;56358;56.328;43.992;2023-03-15T12:13:49;8.07;;;4.15;;
69246;SDS011;56358;56.328;43.992;2023-03-15T12:15:55;5.07;;;2.40;;
69246;SDS011;56358;56.328;43.992;2023-03-15T12:17:58;2.67;;;2.05;;
69246;SDS011;56358;56.328;43.992;2023-03-15T12:20:00;3.00;;;2.20;;
69246;SDS011;56358;56.328;43.992;2023-03-15T12:22:14;4.10;;;2.30;;
69246;SDS011;56358;56.328;43.992;2023-03-15T12:26:37;4.10;;;2.40;;
69246;SDS011;56358;56.328;43.992;2023-03-15T12:29:06;3.33;;;2.35;;
69246;SDS011;56358;56.328;43.992;2023-03-15T12:31:13;3.80;;;2.38;;
69246;SDS011;56358;56.328;43.992;2023-03-15T12:33:16;5.13;;;2.65;;
69246;SDS011;56358;56.328;43.992;2023-03-15T12:35:20;6.60;;;3.67;;
69246;SDS011;56358;56.328;43.992;2023-03-15T12:37:30;3.83;;;2.58;;
69246;SDS011;56358;56.328;43.992;2023-03-15T12:48:38;5.05;;;2.78;;
69246;SDS011;56358;56.328;43.992;2023-03-15T12:51:12;3.90;;;2.97;;
69246;SDS011;56358;56.328;43.992;2023-03-15T12:53:43;6.85;;;4.45;;
69246;SDS011;56358;56.328;43.992;2023-03-15T12:55:47;6.22;;;4.15;;
69246;SDS011;56358;56.328;43.992;2023-03-15T12:57:51;6.38;;;4.50;;
69246;SDS011;56358;56.328;43.992;2023-03-15T13:00:02;6.72;;;3.17;;
69246;SDS011;56358;56.328;43.992;2023-03-15T13:02:19;5.35;;;3.30;;
69246;SDS011;56358;56.328;43.992;2023-03-15T13:04:29;6.07;;;3.53;;
69246;SDS011;56358;56.328;43.992;2023-03-15T13:11:09;5.38;;;4.10;;